sensor_id;sensor_type;location;lat;lon;timestamp;temperature;humidity
19888;DHT22;10106;51.332;12.336;2022-07-29T00:00:42;17.70;82.60
19888;DHT22;10106;51.332;12.336;2022-07-29T00:03:11;17.70;82.70
19888;DHT22;10106;51.332;12.336;2022-07-29T00:05:39;17.70;82.80
19888;DHT22;10106;51.332;12.336;2022-07-29T00:08:05;17.70;83.10
19888;DHT22;10106;51.332;12.336;2022-07-29T00:10:31;17.70;83.10
19888;DHT22;10106;51.332;12.336;2022-07-29T00:12:57;17.70;83.40
19888;DHT22;10106;51.332;12.336;2022-07-29T00:15:23;17.70;83.50
19888;DHT22;10106;51.332;12.336;2022-07-29T00:17:49;17.70;83.60
19888;DHT22;10106;51.332;12.336;2022-07-29T00:20:14;17.70;83.90
19888;DHT22;10106;51.332;12.336;2022-07-29T00:22:40;17.70;84.20
19888;DHT22;10106;51.332;12.336;2022-07-29T00:25:06;17.70;84.50
19888;DHT22;10106;51.332;12.336;2022-07-29T00:27:33;17.60;84.50
19888;DHT22;10106;51.332;12.336;2022-07-29T00:29:59;17.60;85.00
19888;DHT22;10106;51.332;12.336;2022-07-29T00:32:25;17.60;85.10
19888;DHT22;10106;51.332;12.336;2022-07-29T00:34:51;17.60;85.30
19888;DHT22;10106;51.332;12.336;2022-07-29T00:37:35;17.60;85.40
19888;DHT22;10106;51.332;12.336;2022-07-29T00:40:01;17.60;85.60
19888;DHT22;10106;51.332;12.336;2022-07-29T00:42:27;17.60;85.80
19888;DHT22;10106;51.332;12.336;2022-07-29T00:44:53;17.60;86.00
19888;DHT22;10106;51.332;12.336;2022-07-29T00:47:19;17.50;86.20
19888;DHT22;10106;51.332;12.336;2022-07-29T00:49:45;17.50;86.60
19888;DHT22;10106;51.332;12.336;2022-07-29T00:52:11;17.50;86.90
19888;DHT22;10106;51.332;12.336;2022-07-29T00:54:39;17.50;87.30
19888;DHT22;10106;51.332;12.336;2022-07-29T00:57:07;17.40;87.40
19888;DHT22;10106;51.332;12.336;2022-07-29T00:59:34;17.40;87.80
19888;DHT22;10106;51.332;12.336;2022-07-29T01:02:00;17.40;88.00
19888;DHT22;10106;51.332;12.336;2022-07-29T01:04:26;17.40;88.20
19888;DHT22;10106;51.332;12.336;2022-07-29T01:06:53;17.40;88.60
19888;DHT22;10106;51.332;12.336;2022-07-29T01:09:20;17.40;88.80
19888;DHT22;10106;51.332;12.336;2022-07-29T01:11:46;17.30;88.90
19888;DHT22;10106;51.332;12.336;2022-07-29T01:14:14;17.40;89.20
19888;DHT22;10106;51.332;12.336;2022-07-29T01:16:54;17.30;89.30
19888;DHT22;10106;51.332;12.336;2022-07-29T01:22:27;17.30;90.00
19888;DHT22;10106;51.332;12.336;2022-07-29T01:30:35;17.30;90.50
19888;DHT22;10106;51.332;12.336;2022-07-29T01:33:07;17.20;90.60
19888;DHT22;10106;51.332;12.336;2022-07-29T01:35:39;17.20;90.70
19888;DHT22;10106;51.332;12.336;2022-07-29T01:38:12;17.20;90.90
19888;DHT22;10106;51.332;12.336;2022-07-29T01:41:16;17.20;91.00
19888;DHT22;10106;51.332;12.336;2022-07-29T01:43:53;17.20;91.20
19888;DHT22;10106;51.332;12.336;2022-07-29T01:46:30;17.20;91.30
19888;DHT22;10106;51.332;12.336;2022-07-29T01:49:18;17.10;91.50
19888;DHT22;10106;51.332;12.336;2022-07-29T01:52:01;17.10;91.60
19888;DHT22;10106;51.332;12.336;2022-07-29T01:54:41;17.10;91.80
19888;DHT22;10106;51.332;12.336;2022-07-29T01:57:09;17.10;92.00
19888;DHT22;10106;51.332;12.336;2022-07-29T01:59:37;17.10;92.20
19888;DHT22;10106;51.332;12.336;2022-07-29T02:02:05;17.10;92.30
19888;DHT22;10106;51.332;12.336;2022-07-29T02:04:35;17.10;92.40
19888;DHT22;10106;51.332;12.336;2022-07-29T02:07:05;17.10;92.40
19888;DHT22;10106;51.332;12.336;2022-07-29T02:09:33;17.10;92.60
19888;DHT22;10106;51.332;12.336;2022-07-29T02:12:00;17.10;92.80
19888;DHT22;10106;51.332;12.336;2022-07-29T02:14:32;17.10;92.90
19888;DHT22;10106;51.332;12.336;2022-07-29T02:17:00;17.00;93.10
19888;DHT22;10106;51.332;12.336;2022-07-29T02:19:27;17.00;93.20
19888;DHT22;10106;51.332;12.336;2022-07-29T02:21:55;17.00;93.30
19888;DHT22;10106;51.332;12.336;2022-07-29T02:24:23;17.00;93.30
19888;DHT22;10106;51.332;12.336;2022-07-29T02:26:50;17.00;93.20
19888;DHT22;10106;51.332;12.336;2022-07-29T02:29:19;17.00;93.30
19888;DHT22;10106;51.332;12.336;2022-07-29T02:31:47;17.00;93.60
19888;DHT22;10106;51.332;12.336;2022-07-29T02:34:15;17.00;93.70
19888;DHT22;10106;51.332;12.336;2022-07-29T02:36:43;17.00;93.70
19888;DHT22;10106;51.332;12.336;2022-07-29T02:39:11;17.00;93.80
19888;DHT22;10106;51.332;12.336;2022-07-29T02:41:42;17.00;93.90
19888;DHT22;10106;51.332;12.336;2022-07-29T02:44:17;17.00;94.10
19888;DHT22;10106;51.332;12.336;2022-07-29T02:47:02;17.00;94.10
19888;DHT22;10106;51.332;12.336;2022-07-29T02:49:38;17.00;94.40
19888;DHT22;10106;51.332;12.336;2022-07-29T02:52:16;16.90;94.40
19888;DHT22;10106;51.332;12.336;2022-07-29T02:55:37;16.90;94.70
19888;DHT22;10106;51.332;12.336;2022-07-29T03:00:29;16.90;95.00
19888;DHT22;10106;51.332;12.336;2022-07-29T03:02:58;16.90;95.10
19888;DHT22;10106;51.332;12.336;2022-07-29T03:05:25;16.80;95.20
19888;DHT22;10106;51.332;12.336;2022-07-29T03:07:55;16.80;95.40
19888;DHT22;10106;51.332;12.336;2022-07-29T03:10:24;16.80;95.60
19888;DHT22;10106;51.332;12.336;2022-07-29T03:12:51;16.70;95.70
19888;DHT22;10106;51.332;12.336;2022-07-29T03:15:18;16.70;95.90
19888;DHT22;10106;51.332;12.336;2022-07-29T03:17:44;16.70;96.00
19888;DHT22;10106;51.332;12.336;2022-07-29T03:20:11;16.70;96.10
19888;DHT22;10106;51.332;12.336;2022-07-29T03:22:41;16.70;96.50
19888;DHT22;10106;51.332;12.336;2022-07-29T03:25:16;16.70;96.60
19888;DHT22;10106;51.332;12.336;2022-07-29T03:27:43;16.70;96.70
19888;DHT22;10106;51.332;12.336;2022-07-29T03:30:10;16.60;97.30
19888;DHT22;10106;51.332;12.336;2022-07-29T03:32:36;16.60;97.20
19888;DHT22;10106;51.332;12.336;2022-07-29T03:35:03;16.60;97.40
19888;DHT22;10106;51.332;12.336;2022-07-29T03:37:29;16.50;97.60
19888;DHT22;10106;51.332;12.336;2022-07-29T03:39:56;16.50;98.00
19888;DHT22;10106;51.332;12.336;2022-07-29T03:42:25;16.50;98.00
19888;DHT22;10106;51.332;12.336;2022-07-29T03:44:52;16.50;98.30
19888;DHT22;10106;51.332;12.336;2022-07-29T03:47:24;16.40;98.30
19888;DHT22;10106;51.332;12.336;2022-07-29T03:49:54;16.40;98.60
19888;DHT22;10106;51.332;12.336;2022-07-29T03:52:22;16.40;98.80
19888;DHT22;10106;51.332;12.336;2022-07-29T03:54:48;16.40;98.80
19888;DHT22;10106;51.332;12.336;2022-07-29T03:57:15;16.40;99.00
19888;DHT22;10106;51.332;12.336;2022-07-29T03:59:41;16.40;99.20
19888;DHT22;10106;51.332;12.336;2022-07-29T04:02:09;16.40;99.30
19888;DHT22;10106;51.332;12.336;2022-07-29T04:04:36;16.40;99.40
19888;DHT22;10106;51.332;12.336;2022-07-29T04:07:02;16.40;99.50
19888;DHT22;10106;51.332;12.336;2022-07-29T04:09:31;16.40;99.60
19888;DHT22;10106;51.332;12.336;2022-07-29T04:11:57;16.50;99.60
19888;DHT22;10106;51.332;12.336;2022-07-29T04:14:22;16.50;99.60
19888;DHT22;10106;51.332;12.336;2022-07-29T04:16:48;16.50;99.60
19888;DHT22;10106;51.332;12.336;2022-07-29T04:19:13;16.50;99.90
19888;DHT22;10106;51.332;12.336;2022-07-29T04:21:40;16.50;99.70
19888;DHT22;10106;51.332;12.336;2022-07-29T04:24:07;16.60;99.70
19888;DHT22;10106;51.332;12.336;2022-07-29T04:26:33;16.60;99.70
19888;DHT22;10106;51.332;12.336;2022-07-29T04:28:59;16.60;99.80
19888;DHT22;10106;51.332;12.336;2022-07-29T04:31:24;16.70;99.70
19888;DHT22;10106;51.332;12.336;2022-07-29T04:33:50;16.70;99.60
19888;DHT22;10106;51.332;12.336;2022-07-29T04:36:15;16.70;99.70
19888;DHT22;10106;51.332;12.336;2022-07-29T04:38:41;16.80;99.50
19888;DHT22;10106;51.332;12.336;2022-07-29T04:41:07;16.80;99.30
19888;DHT22;10106;51.332;12.336;2022-07-29T04:43:37;16.80;99.30
19888;DHT22;10106;51.332;12.336;2022-07-29T04:46:06;16.90;99.10
19888;DHT22;10106;51.332;12.336;2022-07-29T04:48:32;16.90;99.00
19888;DHT22;10106;51.332;12.336;2022-07-29T04:50:58;16.90;99.00
19888;DHT22;10106;51.332;12.336;2022-07-29T04:53:24;16.90;98.80
19888;DHT22;10106;51.332;12.336;2022-07-29T04:55:49;17.00;98.80
19888;DHT22;10106;51.332;12.336;2022-07-29T04:58:15;17.00;98.70
19888;DHT22;10106;51.332;12.336;2022-07-29T05:05:51;17.20;98.30
19888;DHT22;10106;51.332;12.336;2022-07-29T05:08:17;17.40;98.20
19888;DHT22;10106;51.332;12.336;2022-07-29T05:10:43;17.60;98.00
19888;DHT22;10106;51.332;12.336;2022-07-29T05:13:08;17.80;97.70
19888;DHT22;10106;51.332;12.336;2022-07-29T05:15:35;18.00;97.30
19888;DHT22;10106;51.332;12.336;2022-07-29T05:18:01;18.20;96.70
19888;DHT22;10106;51.332;12.336;2022-07-29T05:20:27;18.30;96.90
19888;DHT22;10106;51.332;12.336;2022-07-29T05:22:58;18.40;95.70
19888;DHT22;10106;51.332;12.336;2022-07-29T05:25:27;18.50;95.50
19888;DHT22;10106;51.332;12.336;2022-07-29T05:27:54;18.60;95.30
19888;DHT22;10106;51.332;12.336;2022-07-29T05:30:20;18.70;94.80
19888;DHT22;10106;51.332;12.336;2022-07-29T05:32:46;18.70;95.00
19888;DHT22;10106;51.332;12.336;2022-07-29T05:35:11;18.90;94.60
19888;DHT22;10106;51.332;12.336;2022-07-29T05:37:37;19.10;94.40
19888;DHT22;10106;51.332;12.336;2022-07-29T05:40:04;19.10;94.10
19888;DHT22;10106;51.332;12.336;2022-07-29T05:42:29;19.10;94.30
19888;DHT22;10106;51.332;12.336;2022-07-29T05:44:55;19.20;94.00
19888;DHT22;10106;51.332;12.336;2022-07-29T05:47:22;19.00;93.80
19888;DHT22;10106;51.332;12.336;2022-07-29T05:49:47;18.90;94.00
19888;DHT22;10106;51.332;12.336;2022-07-29T05:52:14;18.90;94.10
19888;DHT22;10106;51.332;12.336;2022-07-29T05:54:40;19.00;94.20
19888;DHT22;10106;51.332;12.336;2022-07-29T05:57:14;19.00;94.30
19888;DHT22;10106;51.332;12.336;2022-07-29T05:59:40;19.00;94.40
19888;DHT22;10106;51.332;12.336;2022-07-29T06:02:05;19.00;94.00
19888;DHT22;10106;51.332;12.336;2022-07-29T06:04:32;19.10;93.90
19888;DHT22;10106;51.332;12.336;2022-07-29T06:07:04;19.20;94.20
19888;DHT22;10106;51.332;12.336;2022-07-29T06:09:32;19.30;94.00
19888;DHT22;10106;51.332;12.336;2022-07-29T06:11:57;19.30;93.70
19888;DHT22;10106;51.332;12.336;2022-07-29T06:14:23;19.20;93.80
19888;DHT22;10106;51.332;12.336;2022-07-29T06:16:49;19.20;93.70
19888;DHT22;10106;51.332;12.336;2022-07-29T06:19:15;19.00;93.70
19888;DHT22;10106;51.332;12.336;2022-07-29T06:21:44;18.90;93.90
19888;DHT22;10106;51.332;12.336;2022-07-29T06:24:15;18.80;94.20
19888;DHT22;10106;51.332;12.336;2022-07-29T06:26:41;18.80;94.30
19888;DHT22;10106;51.332;12.336;2022-07-29T06:29:08;18.90;94.20
19888;DHT22;10106;51.332;12.336;2022-07-29T06:31:33;19.00;94.30
19888;DHT22;10106;51.332;12.336;2022-07-29T06:33:59;19.10;94.40
19888;DHT22;10106;51.332;12.336;2022-07-29T06:36:25;19.40;93.90
19888;DHT22;10106;51.332;12.336;2022-07-29T06:38:50;19.50;93.50
19888;DHT22;10106;51.332;12.336;2022-07-29T06:41:16;19.50;93.50
19888;DHT22;10106;51.332;12.336;2022-07-29T06:43:43;19.70;93.30
19888;DHT22;10106;51.332;12.336;2022-07-29T06:46:11;19.90;93.20
19888;DHT22;10106;51.332;12.336;2022-07-29T06:48:39;20.20;92.80
19888;DHT22;10106;51.332;12.336;2022-07-29T06:51:06;21.60;92.40
19888;DHT22;10106;51.332;12.336;2022-07-29T06:53:32;22.50;90.10
19888;DHT22;10106;51.332;12.336;2022-07-29T06:56:02;22.70;87.70
19888;DHT22;10106;51.332;12.336;2022-07-29T06:58:29;22.70;86.90
19888;DHT22;10106;51.332;12.336;2022-07-29T07:00:56;22.90;84.70
19888;DHT22;10106;51.332;12.336;2022-07-29T07:03:22;24.90;81.20
19888;DHT22;10106;51.332;12.336;2022-07-29T07:05:48;25.90;75.60
19888;DHT22;10106;51.332;12.336;2022-07-29T07:08:14;26.80;71.60
19888;DHT22;10106;51.332;12.336;2022-07-29T07:10:41;28.40;66.90
19888;DHT22;10106;51.332;12.336;2022-07-29T07:13:07;31.00;61.10
19888;DHT22;10106;51.332;12.336;2022-07-29T07:15:33;32.90;54.70
19888;DHT22;10106;51.332;12.336;2022-07-29T07:17:58;34.40;49.90
19888;DHT22;10106;51.332;12.336;2022-07-29T07:20:25;34.70;46.70
19888;DHT22;10106;51.332;12.336;2022-07-29T07:22:50;34.80;45.10
19888;DHT22;10106;51.332;12.336;2022-07-29T07:25:16;35.50;43.80
19888;DHT22;10106;51.332;12.336;2022-07-29T07:27:43;35.20;42.60
19888;DHT22;10106;51.332;12.336;2022-07-29T07:30:09;35.30;42.50
19888;DHT22;10106;51.332;12.336;2022-07-29T07:32:35;35.30;42.60
19888;DHT22;10106;51.332;12.336;2022-07-29T07:35:03;35.90;41.40
19888;DHT22;10106;51.332;12.336;2022-07-29T07:37:29;36.30;41.40
19888;DHT22;10106;51.332;12.336;2022-07-29T07:39:54;36.20;40.00
19888;DHT22;10106;51.332;12.336;2022-07-29T07:42:20;36.10;39.90
19888;DHT22;10106;51.332;12.336;2022-07-29T07:44:46;36.70;39.10
19888;DHT22;10106;51.332;12.336;2022-07-29T07:47:13;37.30;38.80
19888;DHT22;10106;51.332;12.336;2022-07-29T07:49:39;37.30;37.10
19888;DHT22;10106;51.332;12.336;2022-07-29T07:52:05;37.40;36.90
19888;DHT22;10106;51.332;12.336;2022-07-29T07:54:31;38.40;36.00
19888;DHT22;10106;51.332;12.336;2022-07-29T07:56:57;38.70;35.60
19888;DHT22;10106;51.332;12.336;2022-07-29T07:59:23;37.90;35.00
19888;DHT22;10106;51.332;12.336;2022-07-29T08:01:49;37.00;36.10
19888;DHT22;10106;51.332;12.336;2022-07-29T08:04:15;37.70;35.70
19888;DHT22;10106;51.332;12.336;2022-07-29T08:06:41;38.00;35.60
19888;DHT22;10106;51.332;12.336;2022-07-29T08:09:06;38.20;34.10
19888;DHT22;10106;51.332;12.336;2022-07-29T08:11:32;38.20;34.00
19888;DHT22;10106;51.332;12.336;2022-07-29T08:13:58;37.80;34.10
19888;DHT22;10106;51.332;12.336;2022-07-29T08:16:24;38.20;33.40
19888;DHT22;10106;51.332;12.336;2022-07-29T08:18:51;37.90;33.80
19888;DHT22;10106;51.332;12.336;2022-07-29T08:21:17;37.90;33.70
19888;DHT22;10106;51.332;12.336;2022-07-29T08:23:49;38.00;34.10
19888;DHT22;10106;51.332;12.336;2022-07-29T08:26:17;38.30;33.30
19888;DHT22;10106;51.332;12.336;2022-07-29T08:28:45;37.90;33.30
19888;DHT22;10106;51.332;12.336;2022-07-29T08:31:12;37.90;33.00
19888;DHT22;10106;51.332;12.336;2022-07-29T08:33:41;38.00;33.60
19888;DHT22;10106;51.332;12.336;2022-07-29T08:36:06;39.00;32.80
19888;DHT22;10106;51.332;12.336;2022-07-29T08:38:38;39.00;32.00
19888;DHT22;10106;51.332;12.336;2022-07-29T08:41:04;38.50;32.40
19888;DHT22;10106;51.332;12.336;2022-07-29T08:43:30;38.30;32.50
19888;DHT22;10106;51.332;12.336;2022-07-29T08:45:55;38.40;32.30
19888;DHT22;10106;51.332;12.336;2022-07-29T08:48:22;38.10;32.60
19888;DHT22;10106;51.332;12.336;2022-07-29T08:50:52;38.60;32.60
19888;DHT22;10106;51.332;12.336;2022-07-29T08:53:18;38.80;32.40
19888;DHT22;10106;51.332;12.336;2022-07-29T08:55:46;38.30;32.40
19888;DHT22;10106;51.332;12.336;2022-07-29T08:58:13;38.00;34.50
19888;DHT22;10106;51.332;12.336;2022-07-29T09:00:45;37.20;38.00
19888;DHT22;10106;51.332;12.336;2022-07-29T09:03:15;36.80;45.70
19888;DHT22;10106;51.332;12.336;2022-07-29T09:05:43;37.70;33.50
19888;DHT22;10106;51.332;12.336;2022-07-29T09:08:10;37.70;38.80
19888;DHT22;10106;51.332;12.336;2022-07-29T09:10:36;37.20;34.10
19888;DHT22;10106;51.332;12.336;2022-07-29T09:13:02;36.50;33.40
19888;DHT22;10106;51.332;12.336;2022-07-29T09:15:28;35.70;34.10
19888;DHT22;10106;51.332;12.336;2022-07-29T09:17:54;35.80;34.40
19888;DHT22;10106;51.332;12.336;2022-07-29T09:20:22;35.60;34.10
19888;DHT22;10106;51.332;12.336;2022-07-29T09:22:49;36.00;34.50
19888;DHT22;10106;51.332;12.336;2022-07-29T09:25:36;36.30;34.50
19888;DHT22;10106;51.332;12.336;2022-07-29T09:28:28;37.70;33.50
19888;DHT22;10106;51.332;12.336;2022-07-29T09:30:57;38.10;32.50
19888;DHT22;10106;51.332;12.336;2022-07-29T09:33:24;37.80;32.10
19888;DHT22;10106;51.332;12.336;2022-07-29T09:36:03;36.90;33.70
19888;DHT22;10106;51.332;12.336;2022-07-29T09:38:29;37.40;32.90
19888;DHT22;10106;51.332;12.336;2022-07-29T09:40:59;38.10;32.40
19888;DHT22;10106;51.332;12.336;2022-07-29T09:43:25;38.40;32.20
19888;DHT22;10106;51.332;12.336;2022-07-29T09:45:51;38.50;33.70
19888;DHT22;10106;51.332;12.336;2022-07-29T09:48:22;38.30;32.20
19888;DHT22;10106;51.332;12.336;2022-07-29T09:53:35;38.80;53.30
19888;DHT22;10106;51.332;12.336;2022-07-29T09:56:02;37.50;31.30
19888;DHT22;10106;51.332;12.336;2022-07-29T09:58:28;37.10;32.50
19888;DHT22;10106;51.332;12.336;2022-07-29T10:00:54;37.60;36.70
19888;DHT22;10106;51.332;12.336;2022-07-29T10:03:21;38.30;33.20
19888;DHT22;10106;51.332;12.336;2022-07-29T10:06:10;38.60;41.90
19888;DHT22;10106;51.332;12.336;2022-07-29T10:08:36;38.50;31.30
19888;DHT22;10106;51.332;12.336;2022-07-29T10:11:12;37.70;31.70
19888;DHT22;10106;51.332;12.336;2022-07-29T10:13:38;36.80;45.90
19888;DHT22;10106;51.332;12.336;2022-07-29T10:16:06;36.80;41.10
19888;DHT22;10106;51.332;12.336;2022-07-29T10:18:32;35.70;36.80
19888;DHT22;10106;51.332;12.336;2022-07-29T10:20:58;34.30;34.00
19888;DHT22;10106;51.332;12.336;2022-07-29T10:23:27;32.30;36.40
19888;DHT22;10106;51.332;12.336;2022-07-29T10:25:53;31.20;37.80
19888;DHT22;10106;51.332;12.336;2022-07-29T10:28:19;30.30;39.00
19888;DHT22;10106;51.332;12.336;2022-07-29T10:30:45;29.70;39.70
19888;DHT22;10106;51.332;12.336;2022-07-29T10:33:31;29.40;40.30
19888;DHT22;10106;51.332;12.336;2022-07-29T10:44:22;28.70;41.10
19888;DHT22;10106;51.332;12.336;2022-07-29T10:46:50;28.70;41.40
19888;DHT22;10106;51.332;12.336;2022-07-29T10:52:02;28.90;41.50
19888;DHT22;10106;51.332;12.336;2022-07-29T10:59:45;29.00;41.90
19888;DHT22;10106;51.332;12.336;2022-07-29T11:05:05;28.80;41.60
19888;DHT22;10106;51.332;12.336;2022-07-29T11:07:33;28.80;41.70
19888;DHT22;10106;51.332;12.336;2022-07-29T11:15:08;29.00;40.30
19888;DHT22;10106;51.332;12.336;2022-07-29T11:20:43;29.40;40.00
19888;DHT22;10106;51.332;12.336;2022-07-29T11:25:45;29.20;39.50
19888;DHT22;10106;51.332;12.336;2022-07-29T11:28:16;29.20;39.80
19888;DHT22;10106;51.332;12.336;2022-07-29T11:30:48;29.10;40.40
19888;DHT22;10106;51.332;12.336;2022-07-29T11:33:28;29.40;39.90
19888;DHT22;10106;51.332;12.336;2022-07-29T11:36:14;29.80;39.60
19888;DHT22;10106;51.332;12.336;2022-07-29T11:38:40;29.90;39.10
19888;DHT22;10106;51.332;12.336;2022-07-29T11:41:23;30.10;39.10
19888;DHT22;10106;51.332;12.336;2022-07-29T11:43:53;30.20;39.10
19888;DHT22;10106;51.332;12.336;2022-07-29T11:46:48;30.20;39.00
19888;DHT22;10106;51.332;12.336;2022-07-29T11:49:25;30.20;39.20
19888;DHT22;10106;51.332;12.336;2022-07-29T11:51:52;30.10;38.80
19888;DHT22;10106;51.332;12.336;2022-07-29T11:54:24;30.10;38.90
19888;DHT22;10106;51.332;12.336;2022-07-29T11:56:52;30.00;39.70
19888;DHT22;10106;51.332;12.336;2022-07-29T11:59:19;29.60;39.50
19888;DHT22;10106;51.332;12.336;2022-07-29T12:01:59;29.40;40.10
19888;DHT22;10106;51.332;12.336;2022-07-29T12:04:25;29.50;40.50
19888;DHT22;10106;51.332;12.336;2022-07-29T12:06:53;29.80;40.30
19888;DHT22;10106;51.332;12.336;2022-07-29T12:09:20;30.00;40.00
19888;DHT22;10106;51.332;12.336;2022-07-29T12:11:46;30.20;39.90
19888;DHT22;10106;51.332;12.336;2022-07-29T12:14:32;30.40;39.70
19888;DHT22;10106;51.332;12.336;2022-07-29T12:16:59;30.40;39.60
19888;DHT22;10106;51.332;12.336;2022-07-29T12:19:28;30.50;39.60
19888;DHT22;10106;51.332;12.336;2022-07-29T12:21:55;30.60;39.30
19888;DHT22;10106;51.332;12.336;2022-07-29T12:24:21;30.70;39.40
19888;DHT22;10106;51.332;12.336;2022-07-29T12:26:58;30.80;40.00
19888;DHT22;10106;51.332;12.336;2022-07-29T12:29:24;30.80;39.60
19888;DHT22;10106;51.332;12.336;2022-07-29T12:31:53;30.90;39.50
19888;DHT22;10106;51.332;12.336;2022-07-29T12:34:22;31.10;39.70
19888;DHT22;10106;51.332;12.336;2022-07-29T12:36:48;31.20;39.80
19888;DHT22;10106;51.332;12.336;2022-07-29T12:39:15;30.80;40.20
19888;DHT22;10106;51.332;12.336;2022-07-29T12:41:41;30.50;40.50
19888;DHT22;10106;51.332;12.336;2022-07-29T12:44:07;30.10;40.80
19888;DHT22;10106;51.332;12.336;2022-07-29T12:46:33;30.00;41.20
19888;DHT22;10106;51.332;12.336;2022-07-29T12:48:59;30.30;41.00
19888;DHT22;10106;51.332;12.336;2022-07-29T12:51:29;30.40;41.20
19888;DHT22;10106;51.332;12.336;2022-07-29T12:54:23;30.40;41.10
19888;DHT22;10106;51.332;12.336;2022-07-29T12:56:58;30.60;40.90
19888;DHT22;10106;51.332;12.336;2022-07-29T12:59:24;30.70;40.80
19888;DHT22;10106;51.332;12.336;2022-07-29T13:01:52;30.80;41.00
19888;DHT22;10106;51.332;12.336;2022-07-29T13:04:29;30.40;41.60
19888;DHT22;10106;51.332;12.336;2022-07-29T13:07:05;30.40;41.90
19888;DHT22;10106;51.332;12.336;2022-07-29T13:09:39;30.50;41.10
19888;DHT22;10106;51.332;12.336;2022-07-29T13:12:10;30.60;40.90
19888;DHT22;10106;51.332;12.336;2022-07-29T13:17:17;30.70;39.70
19888;DHT22;10106;51.332;12.336;2022-07-29T13:20:04;30.80;40.50
19888;DHT22;10106;51.332;12.336;2022-07-29T13:22:30;31.00;40.40
19888;DHT22;10106;51.332;12.336;2022-07-29T13:24:57;31.00;40.50
19888;DHT22;10106;51.332;12.336;2022-07-29T13:27:25;30.80;41.00
19888;DHT22;10106;51.332;12.336;2022-07-29T13:29:52;30.70;40.60
19888;DHT22;10106;51.332;12.336;2022-07-29T13:32:20;30.50;41.30
19888;DHT22;10106;51.332;12.336;2022-07-29T13:34:46;30.40;41.00
19888;DHT22;10106;51.332;12.336;2022-07-29T13:37:12;30.20;41.50
19888;DHT22;10106;51.332;12.336;2022-07-29T13:39:37;30.40;41.10
19888;DHT22;10106;51.332;12.336;2022-07-29T13:42:04;30.60;40.70
19888;DHT22;10106;51.332;12.336;2022-07-29T13:44:30;30.50;41.00
19888;DHT22;10106;51.332;12.336;2022-07-29T13:46:56;30.80;40.70
19888;DHT22;10106;51.332;12.336;2022-07-29T13:49:21;30.80;40.70
19888;DHT22;10106;51.332;12.336;2022-07-29T13:51:49;31.00;40.90
19888;DHT22;10106;51.332;12.336;2022-07-29T13:54:15;31.00;40.50
19888;DHT22;10106;51.332;12.336;2022-07-29T13:56:43;30.80;40.50
19888;DHT22;10106;51.332;12.336;2022-07-29T13:59:08;30.80;40.20
19888;DHT22;10106;51.332;12.336;2022-07-29T14:01:38;30.60;40.50
19888;DHT22;10106;51.332;12.336;2022-07-29T14:04:07;30.40;40.70
19888;DHT22;10106;51.332;12.336;2022-07-29T14:06:32;30.40;40.90
19888;DHT22;10106;51.332;12.336;2022-07-29T14:08:58;30.50;40.90
19888;DHT22;10106;51.332;12.336;2022-07-29T14:11:24;30.60;40.80
19888;DHT22;10106;51.332;12.336;2022-07-29T14:13:50;30.70;40.80
19888;DHT22;10106;51.332;12.336;2022-07-29T14:16:15;30.50;40.40
19888;DHT22;10106;51.332;12.336;2022-07-29T14:18:41;30.50;40.90
19888;DHT22;10106;51.332;12.336;2022-07-29T14:21:07;30.50;40.80
19888;DHT22;10106;51.332;12.336;2022-07-29T14:23:33;30.60;40.90
19888;DHT22;10106;51.332;12.336;2022-07-29T14:25:59;30.70;40.60
19888;DHT22;10106;51.332;12.336;2022-07-29T14:28:24;30.60;40.60
19888;DHT22;10106;51.332;12.336;2022-07-29T14:30:50;30.40;40.90
19888;DHT22;10106;51.332;12.336;2022-07-29T14:33:16;30.10;41.20
19888;DHT22;10106;51.332;12.336;2022-07-29T14:35:41;29.90;41.50
19888;DHT22;10106;51.332;12.336;2022-07-29T14:38:07;29.80;41.80
19888;DHT22;10106;51.332;12.336;2022-07-29T14:40:33;29.80;42.00
19888;DHT22;10106;51.332;12.336;2022-07-29T14:42:59;29.80;41.80
19888;DHT22;10106;51.332;12.336;2022-07-29T14:45:25;29.90;41.70
19888;DHT22;10106;51.332;12.336;2022-07-29T14:47:50;29.90;41.80
19888;DHT22;10106;51.332;12.336;2022-07-29T14:50:16;30.10;41.90
19888;DHT22;10106;51.332;12.336;2022-07-29T14:52:43;30.00;41.90
19888;DHT22;10106;51.332;12.336;2022-07-29T14:55:09;29.90;42.10
19888;DHT22;10106;51.332;12.336;2022-07-29T14:57:34;29.70;42.60
19888;DHT22;10106;51.332;12.336;2022-07-29T15:00:01;29.70;42.80
19888;DHT22;10106;51.332;12.336;2022-07-29T15:02:26;29.60;43.30
19888;DHT22;10106;51.332;12.336;2022-07-29T15:04:52;29.50;43.50
19888;DHT22;10106;51.332;12.336;2022-07-29T15:07:18;29.50;43.10
19888;DHT22;10106;51.332;12.336;2022-07-29T15:09:43;29.50;43.40
19888;DHT22;10106;51.332;12.336;2022-07-29T15:12:11;29.50;43.30
19888;DHT22;10106;51.332;12.336;2022-07-29T15:14:36;29.60;43.50
19888;DHT22;10106;51.332;12.336;2022-07-29T15:17:02;29.70;43.40
19888;DHT22;10106;51.332;12.336;2022-07-29T15:19:28;29.70;43.70
19888;DHT22;10106;51.332;12.336;2022-07-29T15:21:54;29.80;43.90
19888;DHT22;10106;51.332;12.336;2022-07-29T15:24:19;29.90;43.70
19888;DHT22;10106;51.332;12.336;2022-07-29T15:26:46;29.60;43.80
19888;DHT22;10106;51.332;12.336;2022-07-29T15:29:12;29.50;44.00
19888;DHT22;10106;51.332;12.336;2022-07-29T15:31:38;29.30;44.10
19888;DHT22;10106;51.332;12.336;2022-07-29T15:34:04;29.20;44.30
19888;DHT22;10106;51.332;12.336;2022-07-29T15:36:30;29.20;44.20
19888;DHT22;10106;51.332;12.336;2022-07-29T15:38:56;29.20;44.50
19888;DHT22;10106;51.332;12.336;2022-07-29T15:41:22;29.30;44.50
19888;DHT22;10106;51.332;12.336;2022-07-29T15:43:48;29.40;44.50
19888;DHT22;10106;51.332;12.336;2022-07-29T15:46:15;29.40;44.50
19888;DHT22;10106;51.332;12.336;2022-07-29T15:49:01;29.30;44.60
19888;DHT22;10106;51.332;12.336;2022-07-29T15:51:27;29.20;45.40
19888;DHT22;10106;51.332;12.336;2022-07-29T15:53:52;28.70;50.10
19888;DHT22;10106;51.332;12.336;2022-07-29T15:56:18;28.10;52.40
19888;DHT22;10106;51.332;12.336;2022-07-29T15:58:44;27.60;54.90
19888;DHT22;10106;51.332;12.336;2022-07-29T16:01:09;27.10;56.70
19888;DHT22;10106;51.332;12.336;2022-07-29T16:03:36;26.80;58.20
19888;DHT22;10106;51.332;12.336;2022-07-29T16:06:01;26.50;60.00
19888;DHT22;10106;51.332;12.336;2022-07-29T16:08:27;26.10;62.00
19888;DHT22;10106;51.332;12.336;2022-07-29T16:10:53;25.80;63.00
19888;DHT22;10106;51.332;12.336;2022-07-29T16:13:18;25.80;64.10